This is the latest recevied weather packets stored in our database for station/object K7KAR-2. If no packets are shown the sender has not sent any weather packets the latest 10 day(s).
| Time | Temp. | Humidity | Pressure | Rain* | Wind** | Luminosity | Snow |
|---|---|---|---|---|---|---|---|
| 1778273858 | 19.44° C | 22% | 1009.8 hPa | 0 mm | - | 708 W/m² | - |
| 1778273555 | 18.89° C | 24% | 1009.6 hPa | 0 mm | - | 294 W/m² | - |
| 1778273251 | 18.33° C | 27% | 1009.8 hPa | 0 mm | - | 161 W/m² | - |
| 1778272948 | 18.33° C | 27% | 1009.8 hPa | 0 mm | - | 119 W/m² | - |
| 1778272644 | 18.33° C | 24% | 1009.9 hPa | 0 mm | - | 132 W/m² | - |
| 1778272340 | 18.89° C | 23% | 1009.7 hPa | 0 mm | - | 158 W/m² | - |
| 1778272036 | 18.89° C | 19% | 1009.9 hPa | 0 mm | - | 110 W/m² | - |
| 1778271733 | 18.89° C | 20% | 1010.1 hPa | 0 mm | - | 180 W/m² | - |
| 1778271430 | 18.89° C | 20% | 1010.1 hPa | 0 mm | - | 416 W/m² | - |
| 1778271127 | 18.33° C | 24% | 1010.2 hPa | 0 mm | - | 255 W/m² | - |
| 1778270824 | 18.33° C | 27% | 1010.3 hPa | 0 mm | - | 240 W/m² | - |
| 1778270520 | 17.78° C | 28% | 1010.3 hPa | 0 mm | - | 352 W/m² | - |
| 1778270216 | 17.78° C | 31% | 1010.9 hPa | 0 mm | - | 292 W/m² | - |
| 1778269913 | 17.78° C | 30% | 1010.6 hPa | 0 mm | - | 184 W/m² | - |
| 1778269609 | 17.78° C | 26% | 1010.7 hPa | 0 mm | - | 141 W/m² | - |
| 1778269306 | 17.78° C | 26% | 1010.6 hPa | 0 mm | - | 204 W/m² | - |
| 1778269003 | 17.78° C | 29% | 1010.8 hPa | 0 mm | - | 212 W/m² | - |
| 1778268700 | 18.89° C | 27% | 1010.9 hPa | 0 mm | - | 673 W/m² | - |
| 1778268397 | 18.89° C | 19% | 1011 hPa | 0 mm | - | 239 W/m² | - |
| 1778268094 | 18.89° C | 17% | 1011.3 hPa | 0 mm | - | 187 W/m² | - |
| 1778267791 | 18.89° C | 18% | 1011.3 hPa | 0 mm | - | 171 W/m² | - |
| 1778267487 | 18.89° C | 18% | 1011.4 hPa | 0 mm | - | 209 W/m² | - |
| 1778267185 | 18.89° C | 17% | 1011.3 hPa | 0 mm | - | 215 W/m² | - |
| 1778266881 | 18.89° C | 18% | 1011.3 hPa | 0 mm | - | 206 W/m² | - |
| 1778266578 | 18.89° C | 17% | 1011.4 hPa | 0 mm | - | 209 W/m² | - |
* Rain latest hour (hover to see other rain measurements)
** Current wind speed in m/s (hover to see current wind gust speed)